Latest Weather Observations for Tarcoola

IDS60801

Issued at 9:31 am CST Saturday 29 August 2015 (issued every 30 minutes, with the page automatically refreshed every 10 minutes)

About weather observations | Map of weather stations | Latest weather observations for SA | Other Formats
Station Details ID: 016098 Name: TARCOOLA AERO Lat: -30.71 Lon: 134.58 Height: 123.0 m
Data from the previous 72 hours. | See also: Recent months at Tarcoola
Date/Time
CST
Temp
°C
App
Temp
°C
Dew
Point
Rel
Hum
%
Delta-T
°C
Wind Press
QNH
hPa
Press
MSL
hPa
Rain
since 9 am
mm
Dir
 
Spd
km/h
Gust
km/h
Spd
kts
Gust
kts
29/09:30am 14.4 9.6 5.5 55 4.2 ENE 20 26 11 14 1027.4 1027.5 0.0
29/09:00am 13.8 8.6 5.7 58 3.8 E 22 28 12 15 1027.3 1027.4 0.0
29/08:30am 12.7 8.1 5.4 61 3.4 E 19 24 10 13 1027.1 1027.2 0.0
29/08:00am 11.4 6.7 5.3 66 2.8 E 19 24 10 13 1026.7 1026.7 0.0
29/07:30am 10.1 5.7 4.9 70 2.3 ESE 17 20 9 11 1026.4 1026.4 0.0
29/07:00am 8.5 4.8 4.5 76 1.8 ESE 13 17 7 9 1026.0 1026.0 0.0
29/06:30am 6.9 4.4 4.6 85 1.0 ESE 7 13 4 7 1025.8 1025.8 0.0
29/06:00am 5.2 3.7 2.9 85 0.9 CALM 0 6 0 3 1025.4 1025.4 0.0
29/05:30am 4.7 3.0 2.1 83 1.0 CALM 0 0 0 0 1025.2 1025.2 0.0
29/05:00am 6.9 5.5 3.7 80 1.4 CALM 0 6 0 3 1025.1 1025.1 0.0
29/04:30am 5.6 4.1 2.9 83 1.1 CALM 0 0 0 0 1025.1 1025.1 0.0
29/04:00am 5.4 3.8 2.2 80 1.3 CALM 0 0 0 0 1025.1 1025.1 0.0
29/03:30am 5.8 4.2 2.4 79 1.4 CALM 0 0 0 0 1025.3 1025.3 0.0
29/03:00am 6.4 4.8 2.7 77 1.5 CALM 0 0 0 0 1025.6 1025.6 0.0
29/02:30am 8.2 6.7 3.1 70 2.2 CALM 0 0 0 0 1025.9 1025.9 0.0
29/02:00am 9.3 7.9 3.3 66 2.6 CALM 0 0 0 0 1026.2 1026.2 0.0
29/01:30am 8.7 7.3 3.3 69 2.3 CALM 0 0 0 0 1026.4 1026.4 0.0
29/01:00am 8.9 7.4 3.1 67 2.5 CALM 0 2 0 1 1026.4 1026.4 0.0
29/12:30am 10.3 6.7 2.9 60 3.2 ESE 11 13 6 7 1026.5 1026.5 0.0
29/12:00am 11.0 7.4 3.1 58 3.4 ESE 11 13 6 7 1026.5 1026.5 0.0
 
Date/Time
CST
Temp
°C
App
Temp
°C
Dew
Point
Rel
Hum
%
Delta-T
°C
Wind Press
QNH
hPa
Press
MSL
hPa
Rain
since 9 am
mm
Dir
 
Spd
km/h
Gust
km/h
Spd
kts
Gust
kts
28/11:30pm 11.2 7.2 2.8 56 3.6 ESE 13 15 7 8 1026.6 1026.6 0.0
28/11:00pm 11.8 7.8 3.1 55 3.8 ESE 13 17 7 9 1026.8 1026.8 0.0
28/10:30pm 12.0 7.7 3.0 54 3.9 SE 15 19 8 10 1027.0 1027.0 0.0
28/10:00pm 12.2 8.2 2.9 53 4.1 SE 13 17 7 9 1027.0 1027.0 0.0
28/09:30pm 12.4 8.5 3.4 54 4.0 SE 13 17 7 9 1027.0 1027.0 0.0
28/09:00pm 12.5 8.6 3.5 54 4.0 SE 13 15 7 8 1026.9 1026.9 0.0
28/08:30pm 12.8 9.3 3.5 53 4.2 SE 11 13 6 7 1026.7 1026.7 0.0
28/08:00pm 13.1 9.5 3.2 51 4.4 SE 11 13 6 7 1026.4 1026.4 0.0
28/07:30pm 14.0 10.0 2.9 47 4.9 SE 13 17 7 9 1026.1 1026.1 0.0
28/07:00pm 14.7 10.3 2.9 45 5.3 SE 15 17 8 9 1025.6 1025.6 0.0
28/06:30pm 15.3 11.2 2.1 41 5.8 ESE 13 17 7 9 1025.4 1025.4 0.0
28/06:00pm 16.0 11.8 1.7 38 6.3 SE 13 20 7 11 1025.0 1025.0 0.0
28/05:30pm 16.2 12.4 1.5 37 6.5 SE 11 15 6 8 1024.8 1024.8 0.0
28/05:00pm 17.3 11.9 1.3 34 7.1 SE 19 26 10 14 1024.6 1024.6 0.0
28/04:30pm 16.9 11.8 1.0 34 7.0 SE 17 22 9 12 1024.6 1024.6 0.0
28/04:00pm 17.9 14.1 1.8 34 7.3 E 11 22 6 12 1024.7 1024.7 0.0
28/03:30pm 17.8 13.5 1.3 33 7.3 ESE 13 20 7 11 1024.9 1024.9 0.0
28/03:00pm 17.0 12.3 0.6 33 7.1 ESE 15 22 8 12 1025.1 1025.1 0.0
28/02:30pm 18.0 13.9 2.3 35 7.1 E 13 24 7 13 1025.3 1025.3 0.0
28/02:00pm 16.3 12.2 2.3 39 6.3 ENE 13 28 7 15 1025.7 1025.7 0.0
28/01:30pm 17.1 12.9 1.9 36 6.8 E 13 24 7 13 1026.1 1026.1 0.0
28/01:00pm 16.0 11.7 1.3 37 6.5 E 13 22 7 12 1026.7 1026.7 0.0
28/12:30pm 15.9 12.4 3.4 43 5.7 ESE 11 20 6 11 1027.3 1027.4 0.0
28/12:00pm 15.9 10.9 3.4 43 5.7 ENE 19 28 10 15 1028.1 1028.2 0.0
28/11:30am 15.1 10.2 4.2 48 5.0 E 19 24 10 13 1028.5 1028.6 0.0
28/11:00am 14.8 10.0 4.8 51 4.7 E 19 26 10 14 1028.8 1028.9 0.0
28/10:30am 14.2 10.0 5.6 56 4.1 ESE 17 26 9 14 1029.2 1029.2 0.0
28/10:00am 13.3 8.5 5.7 60 3.6 E 20 26 11 14 1029.4 1029.4 0.0
28/09:30am 12.7 7.9 5.6 62 3.3 ESE 20 26 11 14 1029.6 1029.6 0.0
28/09:00am 11.7 6.8 5.3 65 2.9 E 20 26 11 14 1029.6 1029.6 0.0
28/08:30am 10.9 6.2 6.1 72 2.2 E 20 26 11 14 1029.4 1029.4 0.0
28/08:00am 9.9 5.7 5.7 75 1.9 ESE 17 24 9 13 1029.1 1029.1 0.0
28/07:30am 8.8 5.2 5.0 77 1.7 ESE 13 19 7 10 1029.0 1029.0 0.0
28/07:00am 8.0 4.0 4.8 80 1.4 ESE 15 20 8 11 1028.7 1028.8 0.0
28/06:30am 8.2 4.2 5.0 80 1.4 ESE 15 20 8 11 1028.3 1028.4 0.0
28/06:00am 8.3 4.3 4.9 79 1.5 ESE 15 20 8 11 1028.3 1028.4 0.0
28/05:30am 8.6 4.2 5.0 78 1.6 ESE 17 20 9 11 1028.2 1028.3 0.0
28/05:00am 8.6 4.6 4.8 77 1.7 ESE 15 20 8 11 1028.1 1028.2 0.0
28/04:30am 8.8 4.0 4.6 75 1.9 ESE 19 24 10 13 1027.9 1028.0 0.0
28/04:00am 7.5 5.6 5.1 85 1.1 SSE 4 19 2 10 1027.8 1027.9 0.0
28/03:30am 5.9 3.0 2.7 80 1.3 SW 7 9 4 5 1028.0 1028.1 0.0
28/03:00am 6.1 2.8 2.6 78 1.4 SW 9 11 5 6 1028.1 1028.2 0.0
28/02:30am 7.8 4.2 3.1 72 2.0 S 11 13 6 7 1028.2 1028.3 0.0
28/02:00am 8.1 4.5 3.0 70 2.2 S 11 15 6 8 1028.3 1028.4 0.0
28/01:30am 8.3 5.1 2.8 68 2.3 S 9 11 5 6 1028.4 1028.5 0.0
28/01:00am 9.2 5.6 3.0 65 2.7 SSE 11 13 6 7 1028.3 1028.4 0.0
28/12:30am 9.2 5.6 3.0 65 2.6 SSE 11 13 6 7 1028.4 1028.5 0.0
28/12:00am 9.5 5.9 2.8 63 2.9 SSE 11 13 6 7 1028.4 1028.5 0.0
 
Date/Time
CST
Temp
°C
App
Temp
°C
Dew
Point
Rel
Hum
%
Delta-T
°C
Wind Press
QNH
hPa
Press
MSL
hPa
Rain
since 9 am
mm
Dir
 
Spd
km/h
Gust
km/h
Spd
kts
Gust
kts
27/11:30pm 10.2 6.9 2.6 59 3.2 SSE 9 11 5 6 1028.4 1028.5 0.0
27/11:00pm 11.2 7.2 2.8 56 3.7 SE 13 17 7 9 1028.4 1028.5 0.0
27/10:30pm 10.8 7.2 2.9 58 3.4 SE 11 13 6 7 1028.3 1028.4 0.0
27/10:00pm 11.3 7.3 2.9 56 3.7 SE 13 15 7 8 1028.3 1028.4 0.0
27/09:30pm 11.5 7.5 3.0 56 3.7 SE 13 17 7 9 1028.2 1028.3 0.0
27/09:00pm 12.1 8.5 2.8 53 4.1 SE 11 13 6 7 1028.2 1028.3 0.0
27/08:30pm 12.9 8.8 2.5 49 4.5 SE 13 19 7 10 1028.0 1028.1 0.0
27/08:00pm 13.4 9.0 2.6 48 4.8 SE 15 20 8 11 1027.7 1027.8 0.0
27/07:30pm 13.6 9.5 2.2 46 5.0 SE 13 17 7 9 1027.5 1027.6 0.0
27/07:00pm 14.4 9.8 1.7 42 5.6 SE 15 19 8 10 1027.2 1027.3 0.0
27/06:30pm 15.0 10.1 1.9 41 5.8 SE 17 24 9 13 1026.8 1026.8 0.0
27/06:00pm 15.8 11.1 1.2 37 6.4 SE 15 20 8 11 1026.7 1026.7 0.0
27/05:30pm 16.3 12.0 1.2 36 6.6 SE 13 20 7 11 1026.5 1026.5 0.0
27/05:00pm 16.6 12.3 0.7 34 7.0 SSE 13 22 7 12 1026.3 1026.3 0.0
27/04:30pm 16.9 12.3 1.4 35 6.9 SSE 15 24 8 13 1026.1 1026.1 0.0
27/04:00pm 16.7 11.5 -0.1 32 7.2 SSE 17 26 9 14 1026.2 1026.2 0.0
27/03:30pm 16.8 11.3 0.9 34 7.0 SSE 19 28 10 15 1026.3 1026.3 0.0
27/03:00pm 17.2 12.6 1.6 35 7.0 SSE 15 32 8 17 1026.4 1026.4 0.0
27/02:30pm 16.4 13.2 0.5 34 6.9 SE 7 22 4 12 1026.4 1026.4 0.0
27/02:00pm 15.9 12.1 1.6 38 6.3 S 11 20 6 11 1026.7 1026.7 0.0
27/01:30pm 16.8 12.9 3.5 41 6.1 ESE 13 20 7 11 1027.1 1027.2 0.0
27/01:00pm 15.4 11.8 2.9 43 5.7 S 11 22 6 12 1027.5 1027.6 0.0
27/12:30pm 15.6 11.5 2.4 41 5.9 E 13 22 7 12 1027.8 1027.9 0.0
27/12:00pm 14.4 10.3 2.3 44 5.3 SSE 13 24 7 13 1028.2 1028.3 0.0
27/11:30am 14.8 10.5 3.3 46 5.2 ESE 15 20 8 11 1028.6 1028.7 0.0
27/11:00am 13.9 10.8 3.7 50 4.7 SSE 9 24 5 13 1029.0 1029.0 0.0
27/10:30am 12.9 10.6 4.6 57 3.8 SSW 6 15 3 8 1029.1 1029.1 0.0
27/10:00am 12.0 9.7 5.6 65 3.0 S 7 11 4 6 1029.4 1029.4 0.0
27/09:30am 10.4 8.3 5.6 72 2.2 SSW 6 9 3 5 1029.3 1029.3 0.0
27/09:00am 8.8 7.0 5.2 78 1.6 SW 4 7 2 4 1029.3 1029.3 0.0
27/08:30am 7.2 6.0 4.5 83 1.2 CALM 0 0 0 0 1029.0 1029.0 0.0
27/08:00am 5.5 4.1 3.8 89 0.7 CALM 0 0 0 0 1028.4 1028.5 0.0
27/07:30am 3.5 0.7 2.3 92 0.5 WSW 6 7 3 4 1027.9 1028.0 0.0
27/07:00am 2.3 -0.8 1.1 92 0.5 SW 7 7 4 4 1027.4 1027.5 0.0
27/06:30am 2.2 -1.4 0.9 91 0.5 SW 9 9 5 5 1027.2 1027.3 0.0
27/06:00am 2.7 -0.4 1.4 91 0.5 WSW 7 9 4 5 1027.0 1027.0 0.0
27/05:30am 3.0 1.2 1.5 90 0.6 CALM 0 0 0 0 1026.6 1026.6 0.0
27/05:00am 3.1 0.2 1.6 90 0.6 WSW 6 7 3 4 1026.3 1026.3 0.0
27/04:30am 3.3 -0.1 1.7 89 0.6 WSW 9 9 5 5 1026.2 1026.2 0.0
27/04:00am 3.7 0.3 2.1 89 0.6 WSW 9 9 5 5 1026.1 1026.1 0.0
27/03:30am 4.0 1.2 2.2 88 0.7 WSW 6 7 3 4 1026.0 1026.0 0.0
27/03:00am 4.1 0.7 2.1 87 0.8 WSW 9 11 5 6 1026.1 1026.1 0.0
27/02:30am 4.7 1.4 2.2 84 1.0 SW 9 11 5 6 1026.3 1026.3 0.0
27/02:00am 5.4 1.8 2.8 83 1.1 WSW 11 13 6 7 1026.3 1026.3 0.0
27/01:30am 5.3 1.6 2.5 82 1.1 SW 11 11 6 6 1026.3 1026.3 0.0
27/01:00am 5.8 2.2 2.8 81 1.2 WSW 11 11 6 6 1026.5 1026.5 0.0
27/12:30am 5.8 2.5 2.4 79 1.4 WSW 9 9 5 5 1026.6 1026.6 0.0
27/12:00am 6.0 2.7 2.5 78 1.4 SSW 9 11 5 6 1026.5 1026.5 0.0
 
Date/Time
CST
Temp
°C
App
Temp
°C
Dew
Point
Rel
Hum
%
Delta-T
°C
Wind Press
QNH
hPa
Press
MSL
hPa
Rain
since 9 am
mm
Dir
 
Spd
km/h
Gust
km/h
Spd
kts
Gust
kts
26/11:30pm 6.6 3.3 2.3 74 1.8 SW 9 11 5 6 1026.6 1026.6 0.0
26/11:00pm 6.6 3.6 2.3 74 1.8 SW 7 9 4 5 1026.6 1026.6 0.0
26/10:30pm 7.3 4.3 2.2 70 2.1 SW 7 9 4 5 1026.7 1026.7 0.0
26/10:00pm 7.2 3.5 2.5 72 2.0 WSW 11 13 6 7 1026.8 1026.8 0.0
26/09:30pm 7.8 6.4 3.3 73 1.9 CALM 0 0 0 0 1026.6 1026.6 0.0
26/09:00pm 9.0 7.5 2.8 65 2.6 CALM 0 0 0 0 1026.4 1026.4 0.0
26/08:30pm 9.3 6.4 2.6 63 2.8 SSE 7 9 4 5 1026.3 1026.3 0.0
26/08:00pm 10.7 7.2 1.3 52 3.9 S 9 11 5 6 1025.8 1025.8 0.0
26/07:30pm 11.4 7.5 1.4 50 4.2 SSE 11 11 6 6 1025.5 1025.5 0.0
26/07:00pm 12.3 8.6 0.1 43 5.1 SSW 9 11 5 6 1025.2 1025.2 0.0
26/06:30pm 13.5 9.0 -0.5 38 5.8 SSW 13 19 7 10 1024.9 1024.9 0.0
26/06:00pm 14.0 9.9 -0.4 37 6.0 SSW 11 17 6 9 1024.7 1024.7 0.0
26/05:30pm 14.8 10.2 -0.9 34 6.5 SSW 13 20 7 11 1024.3 1024.3 0.0
26/05:00pm 15.3 9.3 -1.3 32 6.9 SSW 20 28 11 15 1024.1 1024.1 0.0
26/04:30pm 15.1 9.2 -1.0 33 6.7 SW 20 28 11 15 1024.0 1024.0 0.0
26/04:00pm 15.5 10.2 -0.3 34 6.7 SW 17 22 9 12 1023.9 1023.9 0.0
26/03:30pm 15.4 9.7 -0.4 34 6.6 SW 19 24 10 13 1024.0 1024.0 0.0
26/03:00pm 15.4 9.7 -0.4 34 6.6 SSW 19 28 10 15 1024.1 1024.1 0.0
26/02:30pm 15.6 10.8 0.2 35 6.6 SSW 15 28 8 15 1024.3 1024.3 0.0
26/02:00pm 15.3 10.4 -0.4 34 6.6 SW 15 24 8 13 1024.7 1024.7 0.0
26/01:30pm 15.1 9.5 -0.2 35 6.4 SW 19 28 10 15 1025.0 1025.0 0.0
26/01:00pm 15.0 10.4 -0.7 34 6.6 SW 13 20 7 11 1025.3 1025.3 0.0
26/12:30pm 14.2 9.5 0.8 40 5.7 SW 15 24 8 13 1025.8 1025.8 0.0
26/12:00pm 14.2 9.2 1.2 41 5.6 WSW 17 22 9 12 1026.2 1026.2 0.0
26/11:30am 14.3 10.8 1.2 41 5.6 SW 9 20 5 11 1026.6 1026.6 0.0
26/11:00am 13.2 10.4 3.0 50 4.6 N 7 11 4 6 1026.8 1026.8 0.0
26/10:30am 12.7 10.1 3.1 52 4.2 W 6 9 3 5 1026.8 1026.8 0.0
26/10:00am 12.4 11.2 4.4 58 3.7 CALM 0 7 0 4 1026.9 1026.9 0.0

Other Formats:

Comma delimited format used in spreadsheet applications
http://www.bom.gov.au/fwo/IDS60801/IDS60801.94655.axf

JavaScript Object Notation format (JSON) in row-major order
http://www.bom.gov.au/fwo/IDS60801/IDS60801.94655.json